Time;durP1;ratioP1;P1;durP2;ratioP2;P2;SDS_P1;SDS_P2;PMS_P1;PMS_P2;Temp;Humidity;BMP_temperature;BMP_pressure;BME280_temperature;BME280_humidity;BME280_pressure;Samples;Min_cycle;Max_cycle;Signal;HPM_P1;HPM_P2
2021/08/31 00:00:44;;;;;;;;;11.00;7.00;;;;;23.48;48.84;101914.22;5078314;27;51092;-58
2021/08/31 00:03:09;;;;;;;;;6.50;6.50;;;;;23.48;48.30;101924.44;5075503;27;52883;-58
2021/08/31 00:05:35;;;;;;;;;11.00;8.50;;;;;23.46;48.36;101916.38;5057770;28;51129;-58
2021/08/31 00:08:00;;;;;;;;;10.25;8.50;;;;;23.45;48.40;101920.19;5077151;27;50976;-58
2021/08/31 00:10:25;;;;;;;;;11.75;7.75;;;;;23.45;48.39;101924.88;5091613;27;50961;-58
2021/08/31 00:12:51;;;;;;;;;9.75;8.00;;;;;23.43;48.81;101922.31;5084267;27;52097;-59
2021/08/31 00:15:17;;;;;;;;;7.50;7.00;;;;;23.43;48.56;101916.78;5063640;27;51164;-59
2021/08/31 00:17:43;;;;;;;;;8.50;8.25;;;;;23.43;48.36;101916.78;5085605;27;51207;-59
2021/08/31 00:20:10;;;;;;;;;7.00;7.00;;;;;23.41;48.41;101913.38;5093664;27;51132;-59
2021/08/31 00:22:35;;;;;;;;;9.50;8.50;;;;;23.41;48.82;101916.16;5075821;27;50894;-59
2021/08/31 00:25:06;;;;;;;;;10.00;6.00;;;;;23.41;48.53;101912.53;5075423;27;51119;-58
2021/08/31 00:27:32;;;;;;;;;9.00;6.25;;;;;23.42;48.87;101906.78;5089834;27;52527;-58
2021/08/31 00:29:58;;;;;;;;;8.50;8.00;;;;;23.41;48.58;101912.53;5082308;27;51102;-58
2021/08/31 00:32:23;;;;;;;;;10.75;8.50;;;;;23.39;49.18;101912.75;5075421;27;51053;-58
2021/08/31 00:34:48;;;;;;;;;8.00;6.50;;;;;23.40;48.81;101905.31;5084610;27;50934;-58
2021/08/31 00:37:14;;;;;;;;;10.00;8.00;;;;;23.39;48.36;101915.53;5086422;27;50961;-59
2021/08/31 00:39:39;;;;;;;;;9.00;8.25;;;;;23.38;48.70;101916.59;5088740;27;51299;-59
2021/08/31 00:42:04;;;;;;;;;9.25;6.75;;;;;23.37;48.79;101914.03;5083041;27;50896;-58
2021/08/31 00:44:30;;;;;;;;;7.00;6.25;;;;;23.37;49.07;101919.56;5093588;27;51113;-58
2021/08/31 00:47:00;;;;;;;;;5.75;3.25;;;;;23.36;48.46;101921.50;5082085;27;51092;-58
2021/08/31 00:49:28;;;;;;;;;8.75;8.75;;;;;23.36;48.85;101927.03;5080219;27;51288;-58
2021/08/31 00:51:56;;;;;;;;;9.00;6.75;;;;;23.36;48.49;101915.97;5084282;27;53126;-58
2021/08/31 00:54:23;;;;;;;;;4.75;4.75;;;;;23.35;48.74;101914.25;5097346;27;51414;-58
2021/08/31 00:56:49;;;;;;;;;7.00;6.75;;;;;23.34;48.70;101909.78;5090615;27;51204;-58
2021/08/31 00:59:18;;;;;;;;;11.25;8.75;;;;;23.33;48.71;101908.06;5098536;27;51194;-59
2021/08/31 01:01:44;;;;;;;;;9.00;8.00;;;;;23.33;48.87;101908.06;5096731;27;52065;-59
2021/08/31 01:04:10;;;;;;;;;7.00;6.50;;;;;23.32;49.06;101907.22;5097205;27;51211;-58
2021/08/31 01:06:35;;;;;;;;;8.00;7.75;;;;;23.31;48.45;101919.34;5098619;27;51073;-59
2021/08/31 01:09:00;;;;;;;;;9.75;7.00;;;;;23.32;49.13;101917.44;5098433;27;51194;-59
2021/08/31 01:11:26;;;;;;;;;7.75;6.25;;;;;23.29;49.08;101920.66;5098321;27;51859;-59
2021/08/31 01:13:52;;;;;;;;;7.25;6.00;;;;;23.29;49.16;101927.03;5080047;27;51308;-59
2021/08/31 01:16:17;;;;;;;;;10.50;9.50;;;;;23.28;48.86;101917.03;5080102;27;51068;-59
2021/08/31 01:18:43;;;;;;;;;10.00;7.50;;;;;23.28;48.57;101918.94;5098137;27;50989;-59
2021/08/31 01:21:09;;;;;;;;;7.50;6.00;;;;;23.28;48.79;101921.72;5096733;27;52569;-59
2021/08/31 01:23:35;;;;;;;;;8.00;7.00;;;;;23.27;48.98;101922.78;5097809;27;51251;-59
2021/08/31 01:26:00;;;;;;;;;10.00;6.75;;;;;23.28;48.75;101924.47;5094197;27;51149;-59
2021/08/31 01:28:29;;;;;;;;;6.25;5.25;;;;;23.26;48.48;101930.22;5085129;27;51472;-59
2021/08/31 01:30:56;;;;;;;;;9.00;7.00;;;;;23.26;48.91;101921.09;5097862;27;51027;-59
2021/08/31 01:33:26;;;;;;;;;6.50;6.00;;;;;23.25;48.65;101924.91;5098421;27;50977;-59
2021/08/31 01:35:52;;;;;;;;;7.00;5.00;;;;;23.24;48.89;101923.19;5084789;27;51082;-59
2021/08/31 01:38:17;;;;;;;;;8.00;5.75;;;;;23.24;48.83;101925.94;5078313;27;50955;-59
2021/08/31 01:40:43;;;;;;;;;6.00;4.75;;;;;23.24;48.74;101928.72;5078404;27;51115;-59
2021/08/31 01:43:08;;;;;;;;;7.50;5.00;;;;;23.24;48.85;101923.19;5094622;27;51035;-58
2021/08/31 01:45:44;;;;;;;;;5.75;5.75;;;;;23.23;48.56;101929.78;5087608;27;51274;-59
2021/08/31 01:48:11;;;;;;;;;6.50;4.50;;;;;23.22;48.49;101925.31;5079233;27;51046;-59
2021/08/31 01:50:37;;;;;;;;;9.50;6.75;;;;;23.21;48.88;101923.63;5079205;27;51709;-58
2021/08/31 01:53:03;;;;;;;;;5.00;5.00;;;;;23.21;49.02;101924.47;5075967;27;51070;-58
2021/08/31 01:55:29;;;;;;;;;5.50;5.50;;;;;23.20;48.75;101928.31;5085053;27;51096;-58
2021/08/31 01:57:54;;;;;;;;;5.25;4.25;;;;;23.20;48.89;101927.47;5079151;27;51048;-58
2021/08/31 02:00:19;;;;;;;;;9.50;7.00;;;;;23.18;48.93;101922.16;5077825;27;51030;-58
2021/08/31 02:02:44;;;;;;;;;5.25;5.00;;;;;23.19;48.94;101925.75;5090155;27;52383;-58
2021/08/31 02:05:10;;;;;;;;;4.75;4.75;;;;;23.18;48.91;101924.06;5094666;27;51104;-58
2021/08/31 02:07:36;;;;;;;;;2.50;2.50;;;;;23.18;48.86;101924.06;5096603;27;51264;-58
2021/08/31 02:10:01;;;;;;;;;8.75;5.00;;;;;23.18;48.38;101926.81;5096666;27;51048;-59
2021/08/31 02:12:26;;;;;;;;;8.50;6.50;;;;;23.17;48.42;101925.13;5097564;27;51060;-58
2021/08/31 02:14:52;;;;;;;;;4.25;4.25;;;;;23.16;48.73;101926.19;5089919;27;51179;-59
2021/08/31 02:17:17;;;;;;;;;5.50;5.50;;;;;23.16;49.07;101926.19;5088187;27;51092;-59
2021/08/31 02:19:42;;;;;;;;;5.75;4.00;;;;;23.15;48.84;101933.66;5089211;27;52569;-59
2021/08/31 02:22:08;;;;;;;;;7.50;6.50;;;;;23.13;48.85;101932.97;5082626;27;51168;-58
2021/08/31 02:24:33;;;;;;;;;6.00;6.00;;;;;23.13;48.36;101924.69;5078101;27;51810;-59
2021/08/31 02:26:58;;;;;;;;;9.75;5.75;;;;;23.12;49.00;101935.97;5085871;27;51171;-58
2021/08/31 02:29:25;;;;;;;;;6.25;5.00;;;;;23.11;48.41;101926.81;5079597;27;54437;-58
2021/08/31 02:31:51;;;;;;;;;8.25;6.25;;;;;23.12;48.67;101933.19;5078314;27;51163;-58
2021/08/31 02:34:16;;;;;;;;;4.75;4.75;;;;;23.11;48.48;101931.50;5094378;27;51057;-59
2021/08/31 02:36:41;;;;;;;;;7.00;6.75;;;;;23.10;48.83;101927.03;5089836;27;51138;-58
2021/08/31 02:39:07;;;;;;;;;7.00;5.75;;;;;23.07;48.59;101922.81;5090891;27;51344;-58
2021/08/31 02:41:32;;;;;;;;;4.75;4.50;;;;;23.08;48.53;101929.19;5077576;27;50970;-58
2021/08/31 02:43:57;;;;;;;;;6.50;4.75;;;;;23.06;48.94;101920.25;5059257;28;51095;-58
2021/08/31 02:46:23;;;;;;;;;7.50;5.00;;;;;23.06;48.38;101925.78;5087490;27;51426;-58
2021/08/31 02:48:48;;;;;;;;;6.00;5.00;;;;;23.04;48.79;101929.63;5096842;27;51205;-58
2021/08/31 02:51:13;;;;;;;;;6.00;6.00;;;;;23.03;48.97;101925.16;5096736;27;51288;-58
2021/08/31 02:53:38;;;;;;;;;7.50;5.25;;;;;23.02;48.55;101920.66;5092030;27;51254;-58
2021/08/31 02:56:04;;;;;;;;;7.75;5.25;;;;;23.01;48.41;101930.03;5079040;27;51381;-58
2021/08/31 02:58:29;;;;;;;;;6.00;5.00;;;;;23.01;48.83;101924.50;5076909;27;51861;-58
2021/08/31 03:03:38;;;;;;;;;7.00;5.25;;;;;22.99;48.44;101912.81;5076949;27;51564;-58
2021/08/31 03:06:04;;;;;;;;;7.00;6.00;;;;;22.98;48.60;101911.09;5078164;27;51234;-58
2021/08/31 03:08:30;;;;;;;;;7.75;4.00;;;;;22.97;48.43;101903.88;5076644;27;51127;-58
2021/08/31 03:10:55;;;;;;;;;4.75;4.75;;;;;22.97;48.45;101906.66;5076412;27;51207;-58
2021/08/31 03:13:20;;;;;;;;;7.75;5.00;;;;;22.96;48.91;101904.94;5077926;27;51109;-58
2021/08/31 03:15:45;;;;;;;;;6.00;6.00;;;;;22.96;48.66;101916.00;5076958;27;51106;-58
2021/08/31 03:18:11;;;;;;;;;9.50;6.25;;;;;22.95;48.80;101908.78;5090128;27;51751;-58
2021/08/31 03:20:36;;;;;;;;;7.25;7.00;;;;;22.95;48.55;101917.06;5077733;27;51162;-59
2021/08/31 03:23:01;;;;;;;;;6.00;6.00;;;;;22.95;49.04;101919.00;5095426;27;51036;-58
2021/08/31 03:25:27;;;;;;;;;9.00;6.50;;;;;22.93;48.93;101916.44;5096827;27;51058;-58
2021/08/31 03:27:52;;;;;;;;;6.50;6.00;;;;;22.93;48.74;101926.66;5084347;27;54416;-58
2021/08/31 03:30:19;;;;;;;;;6.00;5.00;;;;;22.93;48.69;101924.72;5094674;27;51217;-58
2021/08/31 03:32:44;;;;;;;;;6.75;5.25;;;;;22.94;48.46;101931.09;5095109;27;51186;-58
2021/08/31 03:35:11;;;;;;;;;8.50;5.25;;;;;22.92;48.34;101935.97;5088461;27;51130;-58
2021/08/31 03:37:37;;;;;;;;;10.50;7.25;;;;;22.91;48.62;101928.75;5079478;27;51817;-58
2021/08/31 03:40:02;;;;;;;;;8.25;6.00;;;;;22.89;48.97;101934.50;5077797;27;51046;-58
2021/08/31 03:42:28;;;;;;;;;6.25;6.00;;;;;22.90;49.08;101938.94;5082616;27;51048;-58
2021/08/31 03:44:53;;;;;;;;;7.75;6.00;;;;;22.90;48.88;101941.72;5076488;27;51026;-58
2021/08/31 03:47:18;;;;;;;;;5.25;5.00;;;;;22.89;48.60;101941.94;5082062;27;51692;-58
2021/08/31 03:49:44;;;;;;;;;5.25;5.00;;;;;22.89;48.45;101951.06;5096045;27;51043;-58
2021/08/31 03:52:09;;;;;;;;;10.00;7.00;;;;;22.88;48.91;101946.59;5094708;27;51194;-58
2021/08/31 03:54:34;;;;;;;;;8.00;7.50;;;;;22.88;48.77;101943.00;5094906;27;51205;-58
2021/08/31 03:56:59;;;;;;;;;6.25;6.00;;;;;22.88;48.70;101940.22;5078706;27;51960;-57
2021/08/31 03:59:25;;;;;;;;;6.00;6.00;;;;;22.87;48.79;101939.38;5095896;27;51146;-58
2021/08/31 04:01:50;;;;;;;;;9.50;6.50;;;;;22.87;48.47;101946.81;5087546;27;51187;-58
2021/08/31 04:04:15;;;;;;;;;6.75;6.25;;;;;22.86;48.90;101948.75;5087058;27;51142;-58
2021/08/31 04:06:41;;;;;;;;;7.00;7.00;;;;;22.86;48.77;101948.75;5085705;27;51343;-57
2021/08/31 04:09:06;;;;;;;;;7.00;6.75;;;;;22.85;48.83;101952.56;5093618;27;51049;-58
2021/08/31 04:11:31;;;;;;;;;8.50;7.50;;;;;22.85;48.60;101952.56;5088527;27;51143;-58
2021/08/31 04:13:57;;;;;;;;;11.25;8.25;;;;;22.85;49.12;101948.94;5077380;27;51260;-58
2021/08/31 04:16:22;;;;;;;;;6.25;6.00;;;;;22.83;48.79;101949.13;5075909;27;51354;-58
2021/08/31 04:18:47;;;;;;;;;8.75;7.00;;;;;22.83;48.69;101954.66;5086137;27;50981;-58
2021/08/31 04:21:12;;;;;;;;;10.00;9.00;;;;;22.84;49.01;101956.38;5087842;27;51132;-58
2021/08/31 04:23:38;;;;;;;;;8.00;5.75;;;;;22.83;49.20;101959.34;5095127;27;51008;-58
2021/08/31 04:26:03;;;;;;;;;9.00;8.00;;;;;22.82;48.85;101957.59;5093121;27;51937;-58
2021/08/31 04:28:28;;;;;;;;;6.50;5.25;;;;;22.82;48.93;101969.50;5090786;27;51274;-58
2021/08/31 04:30:54;;;;;;;;;10.75;10.00;;;;;22.83;48.92;101967.63;5090764;27;51108;-58
2021/08/31 04:33:19;;;;;;;;;9.50;6.50;;;;;22.83;48.71;101970.38;5076031;27;51120;-58
2021/08/31 04:35:44;;;;;;;;;10.00;8.25;;;;;22.81;48.57;101970.56;5075425;27;50960;-58
2021/08/31 04:38:10;;;;;;;;;9.00;8.00;;;;;22.81;48.67;101961.44;5080571;27;51131;-58
2021/08/31 04:40:35;;;;;;;;;11.75;8.50;;;;;22.81;49.13;101972.47;5078352;27;51084;-57
2021/08/31 04:43:00;;;;;;;;;9.75;6.75;;;;;22.81;48.77;101970.56;5086346;27;51309;-57
2021/08/31 04:45:26;;;;;;;;;13.75;11.00;;;;;22.80;49.17;101968.88;5070096;28;52345;-58
2021/08/31 04:47:51;;;;;;;;;8.25;8.25;;;;;22.80;49.20;101959.75;5076219;27;51104;-57
2021/08/31 04:50:16;;;;;;;;;9.00;9.00;;;;;22.81;49.01;101973.34;5073349;28;51098;-57
2021/08/31 04:52:42;;;;;;;;;10.75;10.75;;;;;22.80;49.27;101970.78;5075569;27;50959;-57
2021/08/31 04:55:08;;;;;;;;;13.25;11.00;;;;;22.80;48.98;101971.63;5090989;27;51746;-57
2021/08/31 04:57:33;;;;;;;;;9.00;8.00;;;;;22.80;49.07;101979.06;5074911;28;51328;-58
2021/08/31 04:59:58;;;;;;;;;11.25;10.00;;;;;22.80;49.07;101971.63;5083828;27;51426;-59
2021/08/31 05:02:24;;;;;;;;;8.75;7.75;;;;;22.79;49.11;101975.47;5089892;27;51160;-58
2021/08/31 05:04:51;;;;;;;;;8.50;7.25;;;;;22.79;49.33;101981.00;5078783;27;51041;-58
2021/08/31 05:07:16;;;;;;;;;10.75;9.50;;;;;22.80;49.27;101973.56;5074819;28;51050;-58
2021/08/31 05:09:42;;;;;;;;;11.00;10.25;;;;;22.78;49.11;101968.25;5074443;27;51064;-58
2021/08/31 05:12:07;;;;;;;;;10.25;8.00;;;;;22.79;48.82;101971.84;5078571;27;51028;-58
2021/08/31 05:14:32;;;;;;;;;10.00;9.00;;;;;22.77;48.82;101967.38;5083465;27;51000;-58
2021/08/31 05:16:59;;;;;;;;;8.25;8.25;;;;;22.78;48.87;101971.00;5075160;28;51274;-59
2021/08/31 05:19:26;;;;;;;;;10.75;9.75;;;;;22.77;49.19;101977.59;5073698;27;51418;-58
2021/08/31 05:21:51;;;;;;;;;15.00;10.25;;;;;22.78;49.13;101976.53;5092594;27;51398;-59
2021/08/31 05:24:17;;;;;;;;;14.25;13.25;;;;;22.75;48.91;101972.28;5094460;27;51322;-58
2021/08/31 05:26:43;;;;;;;;;13.25;11.00;;;;;22.77;48.91;101985.88;5085919;27;51114;-58
2021/08/31 05:29:08;;;;;;;;;18.00;12.00;;;;;22.77;48.83;101983.97;5074081;28;50906;-59
2021/08/31 05:31:33;;;;;;;;;13.00;11.00;;;;;22.77;49.43;101995.00;5079791;27;51008;-58
2021/08/31 05:33:59;;;;;;;;;12.25;10.00;;;;;22.77;48.85;101988.63;5091643;27;51333;-60
2021/08/31 05:36:24;;;;;;;;;12.00;12.00;;;;;22.75;49.45;101994.38;5093522;27;51252;-58
2021/08/31 05:38:49;;;;;;;;;15.00;12.50;;;;;22.75;49.57;101993.53;5093239;27;51247;-58
2021/08/31 05:41:15;;;;;;;;;13.75;10.00;;;;;22.75;49.25;101988.00;5087959;27;51084;-58
2021/08/31 05:43:40;;;;;;;;;13.00;10.75;;;;;22.74;49.81;101991.84;5087039;27;51161;-62
2021/08/31 05:46:05;;;;;;;;;10.25;10.00;;;;;22.73;49.42;101993.75;5088080;27;51107;-62
2021/08/31 05:48:30;;;;;;;;;15.00;11.00;;;;;22.73;49.74;101992.91;5097126;27;51128;-62
2021/08/31 05:50:56;;;;;;;;;15.00;13.00;;;;;22.72;49.28;101992.03;5090955;27;51235;-63
2021/08/31 05:53:21;;;;;;;;;15.00;11.75;;;;;22.73;49.80;101990.13;5090927;27;51968;-62
2021/08/31 05:55:46;;;;;;;;;10.25;10.00;;;;;22.74;49.53;102000.97;5097487;27;51220;-62
2021/08/31 05:58:12;;;;;;;;;15.00;13.25;;;;;22.75;49.41;102002.66;5096863;27;51324;-63
2021/08/31 06:00:37;;;;;;;;;12.00;10.00;;;;;22.75;50.06;101997.13;5084042;27;51080;-63
2021/08/31 06:03:03;;;;;;;;;10.25;8.75;;;;;22.77;50.56;102006.06;5089062;27;51306;-64
2021/08/31 06:05:28;;;;;;;;;11.00;9.25;;;;;22.80;52.41;102004.78;5094511;27;51125;-64
2021/08/31 06:07:53;;;;;;;;;14.50;11.50;;;;;22.82;52.42;102016.47;5094285;27;51027;-64
2021/08/31 06:10:19;;;;;;;;;11.50;10.75;;;;;22.85;52.40;102004.22;5084528;27;51331;-63
2021/08/31 06:12:44;;;;;;;;;10.00;9.00;;;;;22.88;51.88;102012.91;5097491;27;52111;-63
2021/08/31 06:15:10;;;;;;;;;13.25;11.00;;;;;22.91;52.32;102012.47;5097675;27;50971;-63
2021/08/31 06:17:37;;;;;;;;;14.00;12.00;;;;;22.93;51.67;102009.53;5093939;27;51242;-65
2021/08/31 06:20:07;;;;;;;;;10.75;10.75;;;;;22.95;52.20;102019.31;5077930;27;52025;-63
2021/08/31 06:22:34;;;;;;;;;15.25;12.50;;;;;22.96;52.51;102015.47;5088583;27;51056;-63
2021/08/31 06:24:59;;;;;;;;;13.75;10.75;;;;;22.98;52.50;102018.88;5087179;27;51265;-64
2021/08/31 06:27:25;;;;;;;;;14.25;11.75;;;;;23.01;52.05;102023.13;5079573;27;51086;-64
2021/08/31 06:29:50;;;;;;;;;15.75;10.75;;;;;23.02;52.13;102033.97;5090570;27;51463;-63
2021/08/31 06:32:15;;;;;;;;;12.25;11.25;;;;;23.02;51.85;102025.66;5090501;27;51823;-63
2021/08/31 06:34:41;;;;;;;;;9.75;9.50;;;;;23.02;51.79;102022.91;5092986;27;51214;-64
2021/08/31 06:37:06;;;;;;;;;13.75;11.25;;;;;23.04;51.47;102028.25;5077873;27;51013;-63
2021/08/31 06:39:31;;;;;;;;;14.75;11.50;;;;;23.04;51.62;102031.88;5086232;27;51257;-63
2021/08/31 06:41:57;;;;;;;;;16.50;12.00;;;;;23.05;51.51;102018.91;5079472;27;51858;-62
2021/08/31 06:44:22;;;;;;;;;16.00;13.25;;;;;23.06;51.48;102026.13;5078818;27;51205;-62
2021/08/31 06:46:48;;;;;;;;;13.25;12.75;;;;;23.07;51.38;102036.09;5082482;27;51962;-62
2021/08/31 06:49:13;;;;;;;;;12.50;11.50;;;;;23.07;51.01;102032.50;5085052;27;51039;-62
2021/08/31 06:51:38;;;;;;;;;16.00;10.75;;;;;;;;5082534;27;51088;-62
2021/08/31 06:54:04;;;;;;;;;13.75;12.00;;;;;23.08;51.21;102023.13;5060635;27;51238;-63
2021/08/31 06:56:29;;;;;;;;;13.50;11.50;;;;;23.08;50.92;102023.13;5086773;27;51216;-61
2021/08/31 06:58:54;;;;;;;;;13.00;11.00;;;;;23.08;50.61;102021.22;5082758;27;51189;-62
2021/08/31 07:01:20;;;;;;;;;10.00;8.50;;;;;23.07;50.55;102021.44;5079124;27;51953;-62
2021/08/31 07:03:45;;;;;;;;;9.75;9.75;;;;;23.07;50.83;102026.97;5082989;27;51045;-60
2021/08/31 07:06:10;;;;;;;;;13.00;10.75;;;;;23.07;50.75;102040.78;5077069;27;50977;-62
2021/08/31 07:08:36;;;;;;;;;12.75;11.25;;;;;23.06;50.75;102031.66;5075880;27;51029;-61
2021/08/31 07:11:01;;;;;;;;;14.25;11.75;;;;;23.06;50.41;102023.34;5084062;27;51952;-61
2021/08/31 07:13:27;;;;;;;;;15.25;12.00;;;;;23.06;50.47;102028.03;5088488;27;51143;-61
2021/08/31 07:15:52;;;;;;;;;13.75;10.25;;;;;23.06;50.63;102034.41;5095725;27;50999;-61
2021/08/31 07:18:18;;;;;;;;;10.50;7.75;;;;;23.05;50.45;102035.47;5095765;27;51021;-61
2021/08/31 07:20:44;;;;;;;;;13.00;11.00;;;;;23.04;50.51;102029.09;5093296;27;51980;-61
2021/08/31 07:23:11;;;;;;;;;14.50;11.50;;;;;23.05;50.61;102029.94;5088200;27;51607;-61
2021/08/31 07:25:36;;;;;;;;;10.25;10.00;;;;;23.05;50.79;102024.41;5093734;27;51198;-62
2021/08/31 07:28:02;;;;;;;;;13.75;11.50;;;;;23.06;50.50;102022.50;5089617;27;51125;-61
2021/08/31 07:30:27;;;;;;;;;11.00;11.00;;;;;23.07;50.24;102029.75;5095458;27;51218;-62
2021/08/31 07:32:53;;;;;;;;;11.50;10.25;;;;;23.07;50.64;102025.06;5091518;27;51057;-61
2021/08/31 07:35:18;;;;;;;;;15.00;12.50;;;;;23.06;50.19;102023.34;5095347;27;51025;-62
2021/08/31 07:37:44;;;;;;;;;12.75;9.75;;;;;23.06;50.08;102017.84;5093051;27;51319;-61
2021/08/31 07:40:09;;;;;;;;;14.00;10.50;;;;;23.07;50.03;102018.69;5092910;27;52065;-62
2021/08/31 07:42:35;;;;;;;;;10.75;10.00;;;;;23.06;50.49;102020.59;5088157;27;51101;-62
2021/08/31 07:45:07;;;;;;;;;13.75;12.25;;;;;23.08;49.82;102018.47;5086325;27;51068;-61
2021/08/31 07:47:32;;;;;;;;;11.25;11.00;;;;;;;;5092760;27;51201;-62
2021/08/31 07:49:58;;;;;;;;;14.00;13.00;;;;;23.08;49.71;102026.75;5091565;27;52019;-62
2021/08/31 07:52:24;;;;;;;;;13.25;11.00;;;;;23.11;49.88;102025.47;5089332;27;51218;-60
2021/08/31 07:54:49;;;;;;;;;16.00;12.00;;;;;23.08;50.09;102021.22;5082116;27;51202;-62
2021/08/31 07:57:14;;;;;;;;;11.00;10.50;;;;;;;;5089635;27;51479;-60
2021/08/31 07:59:40;;;;;;;;;16.75;13.25;;;;;23.08;49.87;102025.91;5083388;27;51633;-61
2021/08/31 08:02:05;;;;;;;;;10.00;8.50;;;;;23.10;49.98;102032.91;5081317;27;51134;-61
2021/08/31 08:04:31;;;;;;;;;12.25;11.00;;;;;23.10;49.80;102027.38;5094719;27;51163;-62
2021/08/31 08:06:57;;;;;;;;;10.50;8.25;;;;;23.11;49.92;102037.38;5093264;27;51065;-61
2021/08/31 08:09:22;;;;;;;;;11.50;10.00;;;;;23.12;49.52;102052.03;5080709;27;51646;-62
2021/08/31 08:11:47;;;;;;;;;10.75;9.25;;;;;23.13;49.71;102042.69;5083435;27;51287;-61
2021/08/31 08:14:13;;;;;;;;;13.75;10.00;;;;;23.14;49.70;102041.66;5093334;27;51102;-62
2021/08/31 08:16:38;;;;;;;;;10.75;9.75;;;;;23.16;49.45;102045.91;5081451;27;51411;-65
2021/08/31 08:19:04;;;;;;;;;12.50;10.00;;;;;23.18;49.58;102054.81;5090589;27;51095;-62
2021/08/31 08:21:29;;;;;;;;;11.75;10.00;;;;;23.21;49.51;102056.31;5075420;27;51069;-62
2021/08/31 08:23:55;;;;;;;;;13.75;11.00;;;;;23.23;49.60;102054.19;5076350;27;51156;-60
2021/08/31 08:26:20;;;;;;;;;10.50;8.00;;;;;23.27;49.29;102050.78;5090149;27;50904;-61
2021/08/31 08:28:46;;;;;;;;;9.75;9.50;;;;;23.32;49.57;102051.00;5091232;27;51283;-62
2021/08/31 08:31:11;;;;;;;;;11.25;9.75;;;;;23.35;49.62;102052.50;5085113;27;51200;-62
2021/08/31 08:33:37;;;;;;;;;10.00;9.00;;;;;23.39;49.58;102062.06;5082398;27;51695;-61
2021/08/31 08:36:04;;;;;;;;;11.25;10.25;;;;;23.42;49.40;102064.41;5092882;27;51329;-61
2021/08/31 08:38:30;;;;;;;;;12.75;9.00;;;;;23.47;49.43;102058.25;5094042;27;53218;-61
2021/08/31 08:41:01;;;;;;;;;13.00;8.00;;;;;23.51;49.59;102056.75;5059814;28;51480;-62
2021/08/31 08:43:26;;;;;;;;;11.25;10.00;;;;;23.55;49.12;102058.88;5085129;27;51190;-62
2021/08/31 08:45:52;;;;;;;;;11.00;10.75;;;;;23.61;49.27;102062.72;5094342;27;51321;-61
2021/08/31 08:48:19;;;;;;;;;11.00;9.25;;;;;23.66;48.93;102054.66;5083911;27;51860;-61
2021/08/31 08:50:46;;;;;;;;;10.00;10.00;;;;;23.71;48.86;102051.22;5093163;27;51451;-62
2021/08/31 08:53:11;;;;;;;;;7.75;7.00;;;;;23.75;48.72;102069.94;5088512;27;51239;-61
2021/08/31 08:55:36;;;;;;;;;12.00;9.75;;;;;23.79;49.24;102062.06;5081074;27;51230;-61
2021/08/31 08:58:02;;;;;;;;;8.75;8.75;;;;;23.80;49.00;102066.53;5077577;27;52231;-61
2021/08/31 09:00:55;;;;;;;;;10.25;9.00;;;;;23.84;48.82;102073.34;5078744;27;51068;-61
2021/08/31 09:03:22;;;;;;;;;10.50;8.75;;;;;23.86;48.89;102072.06;5091555;27;51054;-62
2021/08/31 09:05:48;;;;;;;;;9.00;9.00;;;;;23.87;48.89;102071.00;5055780;27;51143;-62
2021/08/31 09:08:14;;;;;;;;;10.00;8.00;;;;;23.90;48.94;102069.72;5087100;27;52256;-61
2021/08/31 09:10:45;;;;;;;;;8.25;8.25;;;;;23.89;48.69;102065.25;5093096;27;51173;-63
2021/08/31 09:13:11;;;;;;;;;10.50;9.50;;;;;23.91;48.42;102068.66;5081784;27;51096;-61
2021/08/31 09:15:40;;;;;;;;;10.75;8.75;;;;;23.92;48.84;102072.25;5085774;27;51120;-62
2021/08/31 09:18:12;;;;;;;;;13.00;11.50;;;;;23.92;48.56;102075.03;5087405;27;51980;-61
2021/08/31 09:20:47;;;;;;;;;12.75;9.50;;;;;23.91;48.68;102082.47;5081915;27;51326;-61
2021/08/31 09:23:18;;;;;;;;;10.50;8.25;;;;;23.91;48.44;102085.25;5087118;27;51383;-60
2021/08/31 09:25:46;;;;;;;;;10.50;9.50;;;;;23.91;48.49;102085.25;5085097;27;51221;-62
2021/08/31 09:28:47;;;;;;;;;11.75;11.25;;;;;23.90;48.57;102078.03;5089449;27;51899;-60
2021/08/31 09:31:19;;;;;;;;;12.50;11.75;;;;;23.89;48.63;102081.84;5020017;28;51297;-62
2021/08/31 09:33:47;;;;;;;;;10.50;9.25;;;;;23.89;48.41;102081.84;5071468;27;51779;-59
2021/08/31 09:36:21;;;;;;;;;15.75;12.00;;;;;23.90;47.99;102089.94;5087599;27;51177;-61
2021/08/31 09:38:50;;;;;;;;;12.50;10.25;;;;;23.88;48.44;102086.53;5085556;27;51303;-61
2021/08/31 09:41:42;;;;;;;;;12.00;12.00;;;;;23.88;48.06;102081.00;5081535;27;51196;-60
2021/08/31 09:44:14;;;;;;;;;12.75;9.75;;;;;23.88;48.02;102088.47;5081112;27;51155;-61
2021/08/31 09:46:56;;;;;;;;;10.75;10.75;;;;;23.87;48.44;102081.22;5075466;27;51308;-61
2021/08/31 09:49:28;;;;;;;;;15.50;13.25;;;;;23.87;47.81;102078.47;5087003;27;51834;-60
2021/08/31 09:52:10;;;;;;;;;11.75;11.50;;;;;23.86;47.90;102083.13;5088046;27;50906;-61
2021/08/31 09:54:47;;;;;;;;;17.00;12.50;;;;;23.87;47.80;102081.22;5084273;27;51175;-61
2021/08/31 09:57:39;;;;;;;;;14.00;13.00;;;;;23.86;48.11;102080.38;5096720;27;51136;-62
2021/08/31 10:00:28;;;;;;;;;14.50;13.00;;;;;23.86;47.81;102085.03;5087927;27;52890;-62
2021/08/31 10:02:54;;;;;;;;;14.50;14.50;;;;;23.86;48.04;102083.13;5089686;27;51545;-61
2021/08/31 10:05:19;;;;;;;;;11.00;10.25;;;;;23.86;47.79;102085.03;5089030;27;51114;-61
2021/08/31 10:07:45;;;;;;;;;14.50;13.50;;;;;23.87;47.87;102078.47;5066315;27;51352;-60
2021/08/31 10:10:13;;;;;;;;;16.50;15.25;;;;;23.87;47.60;102101.44;5083546;27;52736;-61
2021/08/31 10:12:39;;;;;;;;;11.75;11.75;;;;;23.87;47.73;102093.16;5085125;27;51217;-61
2021/08/31 10:15:05;;;;;;;;;14.75;12.25;;;;;23.88;47.66;102094.00;5086977;27;51167;-61
2021/08/31 10:17:31;;;;;;;;;15.50;14.00;;;;;23.89;47.36;102081.84;5084344;27;51141;-60
2021/08/31 10:19:58;;;;;;;;;14.50;14.00;;;;;23.90;47.54;102089.94;5085830;27;51750;-60
2021/08/31 10:22:25;;;;;;;;;14.00;12.75;;;;;23.93;47.70;102082.25;5089918;27;51276;-61
2021/08/31 10:24:51;;;;;;;;;17.75;15.00;;;;;23.94;47.59;102087.56;5085676;27;51212;-61
2021/08/31 10:27:29;;;;;;;;;15.25;14.25;;;;;23.96;47.47;102084.59;5087882;27;51217;-61
2021/08/31 10:30:13;;;;;;;;;15.25;12.75;;;;;23.97;47.42;102092.69;5082446;27;51850;-61
2021/08/31 10:32:39;;;;;;;;;13.75;13.75;;;;;23.97;47.17;102089.06;5090509;27;51300;-61
2021/08/31 10:35:05;;;;;;;;;17.25;16.25;;;;;23.96;47.30;102099.28;5081603;27;51166;-60
2021/08/31 10:37:47;;;;;;;;;18.50;16.75;;;;;23.97;47.21;102087.16;5075762;27;50961;-60
2021/08/31 10:40:32;;;;;;;;;18.00;16.75;;;;;23.98;47.48;102097.16;5081315;27;51952;-61
2021/08/31 10:42:57;;;;;;;;;23.00;21.25;;;;;23.99;47.43;102087.78;5090938;27;51354;-60
2021/08/31 10:45:34;;;;;;;;;24.00;23.00;;;;;24.01;47.47;102095.88;5084906;27;51136;-61
2021/08/31 10:48:20;;;;;;;;;26.00;22.50;;;;;24.02;47.39;102087.34;5093399;27;51178;-62
2021/08/31 10:51:02;;;;;;;;;24.25;23.25;;;;;24.04;47.45;102090.75;5077710;27;51952;-63
2021/08/31 10:53:48;;;;;;;;;26.00;25.50;;;;;24.05;47.81;102086.91;5088347;27;51444;-62
2021/08/31 10:56:22;;;;;;;;;28.75;25.50;;;;;24.06;47.60;102098.84;5088406;27;51161;-62
2021/08/31 10:58:59;;;;;;;;;24.75;23.00;;;;;24.07;47.58;102095.88;5091614;27;51044;-61
2021/08/31 11:01:41;;;;;;;;;26.75;22.25;;;;;24.07;47.29;102089.47;5076329;27;51377;-62
2021/08/31 11:04:26;;;;;;;;;22.25;21.75;;;;;24.08;47.12;102091.19;5079091;27;51154;-60
2021/08/31 11:07:00;;;;;;;;;25.00;21.25;;;;;24.08;47.64;102088.41;5081605;27;51382;-62
2021/08/31 11:09:26;;;;;;;;;20.50;18.25;;;;;24.08;47.67;102092.03;5087187;27;51211;-61
2021/08/31 11:12:11;;;;;;;;;17.00;14.50;;;;;24.07;47.63;102089.47;5079142;27;52829;-59
2021/08/31 11:14:51;;;;;;;;;23.00;15.75;;;;;24.05;47.31;102086.91;5071592;27;51376;-59
2021/08/31 11:17:40;;;;;;;;;20.00;16.50;;;;;24.03;47.11;102094.59;5084653;27;51257;-59
2021/08/31 11:20:20;;;;;;;;;17.50;16.50;;;;;24.03;46.28;102094.59;5084697;27;51388;-59
2021/08/31 11:22:50;;;;;;;;;19.50;18.00;;;;;24.01;46.36;102091.19;5086804;27;51656;-59